Cic Pride — H9SQ — position and weather

sailwx.info

Track history (hours):
 
Tides and Currents Weather Stations Pressure Air Temp Water Temp Dewpoint Dewpoint Depression Visibility Wind Speed Wind Dir Waves Ship Positions

Cic Pride

Last reported at 2018-May-23 06:36 UTC. Time now 2018-May-23 15:09 UTC.
Position N 55°02' E 009°26'.

Length 289 m; draft 17 m.

Type: Cargo ship. MMSI: 351111000.

Date/timePositionNaut miles runAvg speedWind from/ knotsBaromVisibWave heightAir tempDewpointWater temp
2018-May-23 06:36N 55°02' E 009°26'0 0.1
2018-May-23 06:30N 55°02' E 009°26'0 0.0
2018-May-23 06:00N 55°02' E 009°26'0 0.0
2018-May-23 05:30N 55°02' E 009°26'0 0.0
2018-May-23 05:00N 55°02' E 009°26'0 0.0
2018-May-23 04:30N 55°02' E 009°26'0 0.0
2018-May-23 04:00N 55°02' E 009°26'0 0.0
2018-May-23 03:24N 55°02' E 009°26'0 0.0
2018-May-23 03:00N 55°02' E 009°26'0 0.0
2018-May-23 02:30N 55°02' E 009°26'0 0.0
2018-May-23 01:24N 55°02' E 009°26'0 0.0
2018-May-23 00:57N 55°02' E 009°26'0 0.0
2018-May-23 00:09N 55°02' E 009°26'0 0.0
2018-May-23 00:00N 55°02' E 009°26'0 0.0
2018-May-22 23:30N 55°02' E 009°26'0 0.0
2018-May-22 23:00N 55°02' E 009°26'0 0.0
2018-May-22 22:21N 55°02' E 009°26'0 0.0
2018-May-22 21:54N 55°02' E 009°26'0 0.0
2018-May-22 07:42N 55°02' E 009°26'0 0.0
2018-May-22 06:21N 55°02' E 009°26'0 0.0
2018-May-22 05:59N 55°02' E 009°26'1 0.9
2018-May-22 05:23N 55°02' E 009°27'1 2.7
2018-May-22 04:59N 55°02' E 009°29'2 5.1
2018-May-22 04:30N 55°03' E 009°33'5 1.8
2018-May-22 01:43N 55°06' E 009°40'0 2.0
2018-May-22 01:30N 55°06' E 009°41'9 6.7
2018-May-22 00:09N 55°02' E 009°55'3 9.2
2018-May-21 23:46N 55°01' E 010°01'3 9.3
2018-May-21 23:30N 54°59' E 010°03'5 9.5
2018-May-21 23:00N 54°54' E 010°06'5 9.1
2018-May-21 22:30N 54°50' E 010°10'4 8.4
2018-May-21 22:00N 54°46' E 010°12'5 9.6
2018-May-21 21:30N 54°42' E 010°16'611.2
2018-May-21 21:00N 54°41' E 010°25'611.0
2018-May-21 20:30N 54°41' E 010°35'510.5
2018-May-21 20:00N 54°39' E 010°43'510.0
2018-May-21 19:30N 54°43' E 010°46'5 9.8
2018-May-21 19:00N 54°48' E 010°50'4 9.0
2018-May-21 18:30N 54°52' E 010°50'4 8.6
2018-May-21 18:00N 54°56' E 010°53'4 8.6
2018-May-21 17:30N 54°59' E 010°59'5 9.0
2018-May-21 17:00N 55°04' E 010°60'5 9.1
2018-May-21 16:30N 55°08' E 010°60'5 8.3
2018-May-21 15:53N 55°12' E 011°05'41 9.1
2018-May-21 11:25N 55°52' E 010°49'3 8.2
2018-May-21 11:00N 55°54' E 010°53'5 9.1
2018-May-21 10:30N 55°57' E 010°60'5 9.6
2018-May-21 10:00N 56°01' E 011°04'5 9.5
2018-May-21 09:30N 56°05' E 011°08'5 9.4
2018-May-21 09:00N 56°09' E 011°13'510.0
2018-May-21 08:30N 56°13' E 011°19'610.5
2018-May-21 07:56N 56°18' E 011°24'510.6
2018-May-21 07:30N 56°22' E 011°28'810.5
2018-May-21 06:42N 56°29' E 011°36'210.3
2018-May-21 06:30N 56°31' E 011°38'510.0
2018-May-21 06:00N 56°35' E 011°42'510.1
2018-May-21 05:30N 56°40' E 011°46'5 9.9
2018-May-21 05:00N 56°44' E 011°50'5 9.9
2018-May-21 04:30N 56°49' E 011°49'610.2
2018-May-21 03:56N 56°55' E 011°46'610.6
2018-May-21 03:24N 57°00' E 011°43'410.7
2018-May-21 03:00N 57°04' E 011°40'510.6
2018-May-21 02:30N 57°09' E 011°37'510.4
2018-May-21 02:00N 57°14' E 011°33'510.5
2018-May-21 01:30N 57°19' E 011°30'510.5
2018-May-21 01:00N 57°24' E 011°27'5 9.8
2018-May-21 00:30N 57°29' E 011°27'5 9.8
2018-May-21 00:00N 57°33' E 011°32'2 3.5
2018-May-20 23:30N 57°34' E 011°34'0 0.1
2018-May-20 22:59N 57°34' E 011°34'0 0.0
2018-May-20 22:29N 57°34' E 011°34'0 0.0
2018-May-20 21:59N 57°34' E 011°34'0 0.1
2018-May-20 21:29N 57°34' E 011°34'0 0.0
2018-May-20 20:59N 57°34' E 011°34'0 0.1
2018-May-20 20:29N 57°34' E 011°34'0 0.0
2018-May-20 19:59N 57°34' E 011°34'1 2.6
2018-May-20 19:30N 57°35' E 011°32'3 5.8
2018-May-20 19:00N 57°37' E 011°28'510.6
2018-May-20 18:30N 57°39' E 011°19'610.9
2018-May-20 18:00N 57°42' E 011°10'510.7
2018-May-20 17:30N 57°44' E 011°01'510.9
2018-May-20 17:00N 57°47' E 010°52'611.4
2018-May-20 16:30N 57°47' E 010°41'4 8.5
2018-May-20 16:00N 57°47' E 010°33'4 8.3
2018-May-20 15:30N 57°47' E 010°26'3 6.8
2018-May-20 15:00N 57°47' E 010°19'611.3
2018-May-20 14:30N 57°46' E 010°09'612.9
2018-May-20 14:00N 57°46' E 009°57'1712.6
2018-May-20 12:40N 57°44' E 009°25'312.9
2018-May-20 12:25N 57°44' E 009°19'1913.1
2018-May-20 10:58N 57°43' E 008°43'613.0
2018-May-20 10:30N 57°42' E 008°32'612.5
2018-May-20 10:00N 57°42' E 008°21'612.3
2018-May-20 09:30N 57°42' E 008°09'612.2
2018-May-20 09:00N 57°42' E 007°58'612.2
2018-May-20 08:30N 57°42' E 007°46'612.0
2018-May-20 08:00N 57°43' E 007°35'612.6
2018-May-20 07:30N 57°43' E 007°23'612.6
2018-May-20 07:00N 57°43' E 007°12'612.4
2018-May-20 06:30N 57°44' E 006°60'612.4
2018-May-20 05:59N 57°44' E 006°48'712.5
2018-May-20 05:27N 57°45' E 006°35'612.0
2018-May-20 04:58N 57°45' E 006°25'612.1
2018-May-20 04:29N 57°48' E 006°14'612.0
2018-May-20 04:00N 57°50' E 006°05'612.4
2018-May-20 03:30N 57°53' E 005°54'712.6
2018-May-20 02:59N 57°56' E 005°43'612.7
2018-May-20 02:30N 57°58' E 005°32'612.9
2018-May-20 02:00N 58°01' E 005°22'713.2
2018-May-20 01:30N 58°04' E 005°11'612.8
2018-May-20 01:00N 58°07' E 004°59'612.6
2018-May-20 00:30N 58°09' E 004°49'611.9
2018-May-20 00:00N 58°12' E 004°39'611.7
2018-May-19 23:30N 58°15' E 004°29'712.1
2018-May-19 22:58N 58°17' E 004°17'712.6
2018-May-19 22:26N 58°20' E 004°06'512.5
2018-May-19 22:00N 58°23' E 003°56'812.7
2018-May-19 21:24N 58°26' E 003°43'2212.6
2018-May-19 19:40N 58°35' E 003°05'412.6
2018-May-19 19:23N 58°37' E 002°59'512.6
2018-May-19 19:00N 58°39' E 002°51'712.6
2018-May-19 18:27N 58°42' E 002°39'912.7
2018-May-19 17:45N 58°46' E 002°23'  
Track history (hours):
 
Tides and Currents Weather Stations Pressure Air Temp Water Temp Dewpoint Dewpoint Depression Visibility Wind Speed Wind Dir Waves Ship Positions

Cic Pride

Last reported at 2018-May-23 06:36 UTC. Time now 2018-May-23 15:09 UTC.
Position N 55°02' E 009°26'.

Length 289 m; draft 17 m.

Type: Cargo ship. MMSI: 351111000.

Date/timePositionNaut miles runAvg speedWind from/ knotsBaromVisibWave heightAir tempDewpointWater temp
2018-May-23 06:36N 55°02' E 009°26'0 0.1
2018-May-23 06:30N 55°02' E 009°26'0 0.0
2018-May-23 06:00N 55°02' E 009°26'0 0.0
2018-May-23 05:30N 55°02' E 009°26'0 0.0
2018-May-23 05:00N 55°02' E 009°26'0 0.0
2018-May-23 04:30N 55°02' E 009°26'0 0.0
2018-May-23 04:00N 55°02' E 009°26'0 0.0
2018-May-23 03:24N 55°02' E 009°26'0 0.0
2018-May-23 03:00N 55°02' E 009°26'0 0.0
2018-May-23 02:30N 55°02' E 009°26'0 0.0
2018-May-23 01:24N 55°02' E 009°26'0 0.0
2018-May-23 00:57N 55°02' E 009°26'0 0.0
2018-May-23 00:09N 55°02' E 009°26'0 0.0
2018-May-23 00:00N 55°02' E 009°26'0 0.0
2018-May-22 23:30N 55°02' E 009°26'0 0.0
2018-May-22 23:00N 55°02' E 009°26'0 0.0
2018-May-22 22:21N 55°02' E 009°26'0 0.0
2018-May-22 21:54N 55°02' E 009°26'0 0.0
2018-May-22 07:42N 55°02' E 009°26'0 0.0
2018-May-22 06:21N 55°02' E 009°26'0 0.0
2018-May-22 05:59N 55°02' E 009°26'1 0.9
2018-May-22 05:23N 55°02' E 009°27'1 2.7
2018-May-22 04:59N 55°02' E 009°29'2 5.1
2018-May-22 04:30N 55°03' E 009°33'5 1.8
2018-May-22 01:43N 55°06' E 009°40'0 2.0
2018-May-22 01:30N 55°06' E 009°41'9 6.7
2018-May-22 00:09N 55°02' E 009°55'3 9.2
2018-May-21 23:46N 55°01' E 010°01'3 9.3
2018-May-21 23:30N 54°59' E 010°03'5 9.5
2018-May-21 23:00N 54°54' E 010°06'5 9.1
2018-May-21 22:30N 54°50' E 010°10'4 8.4
2018-May-21 22:00N 54°46' E 010°12'5 9.6
2018-May-21 21:30N 54°42' E 010°16'611.2
2018-May-21 21:00N 54°41' E 010°25'611.0
2018-May-21 20:30N 54°41' E 010°35'510.5
2018-May-21 20:00N 54°39' E 010°43'510.0
2018-May-21 19:30N 54°43' E 010°46'5 9.8
2018-May-21 19:00N 54°48' E 010°50'4 9.0
2018-May-21 18:30N 54°52' E 010°50'4 8.6
2018-May-21 18:00N 54°56' E 010°53'4 8.6
2018-May-21 17:30N 54°59' E 010°59'5 9.0
2018-May-21 17:00N 55°04' E 010°60'5 9.1
2018-May-21 16:30N 55°08' E 010°60'5 8.3
2018-May-21 15:53N 55°12' E 011°05'41 9.1
2018-May-21 11:25N 55°52' E 010°49'3 8.2
2018-May-21 11:00N 55°54' E 010°53'5 9.1
2018-May-21 10:30N 55°57' E 010°60'5 9.6
2018-May-21 10:00N 56°01' E 011°04'5 9.5
2018-May-21 09:30N 56°05' E 011°08'5 9.4
2018-May-21 09:00N 56°09' E 011°13'510.0
2018-May-21 08:30N 56°13' E 011°19'610.5
2018-May-21 07:56N 56°18' E 011°24'510.6
2018-May-21 07:30N 56°22' E 011°28'810.5
2018-May-21 06:42N 56°29' E 011°36'210.3
2018-May-21 06:30N 56°31' E 011°38'510.0
2018-May-21 06:00N 56°35' E 011°42'510.1
2018-May-21 05:30N 56°40' E 011°46'5 9.9
2018-May-21 05:00N 56°44' E 011°50'5 9.9
2018-May-21 04:30N 56°49' E 011°49'610.2
2018-May-21 03:56N 56°55' E 011°46'610.6
2018-May-21 03:24N 57°00' E 011°43'410.7
2018-May-21 03:00N 57°04' E 011°40'510.6
2018-May-21 02:30N 57°09' E 011°37'510.4
2018-May-21 02:00N 57°14' E 011°33'510.5
2018-May-21 01:30N 57°19' E 011°30'510.5
2018-May-21 01:00N 57°24' E 011°27'5 9.8
2018-May-21 00:30N 57°29' E 011°27'5 9.8
2018-May-21 00:00N 57°33' E 011°32'2 3.5
2018-May-20 23:30N 57°34' E 011°34'0 0.1
2018-May-20 22:59N 57°34' E 011°34'0 0.0
2018-May-20 22:29N 57°34' E 011°34'0 0.0
2018-May-20 21:59N 57°34' E 011°34'0 0.1
2018-May-20 21:29N 57°34' E 011°34'0 0.0
2018-May-20 20:59N 57°34' E 011°34'0 0.1
2018-May-20 20:29N 57°34' E 011°34'0 0.0
2018-May-20 19:59N 57°34' E 011°34'1 2.6
2018-May-20 19:30N 57°35' E 011°32'3 5.8
2018-May-20 19:00N 57°37' E 011°28'510.6
2018-May-20 18:30N 57°39' E 011°19'610.9
2018-May-20 18:00N 57°42' E 011°10'510.7
2018-May-20 17:30N 57°44' E 011°01'510.9
2018-May-20 17:00N 57°47' E 010°52'611.4
2018-May-20 16:30N 57°47' E 010°41'4 8.5
2018-May-20 16:00N 57°47' E 010°33'4 8.3
2018-May-20 15:30N 57°47' E 010°26'3 6.8
2018-May-20 15:00N 57°47' E 010°19'611.3
2018-May-20 14:30N 57°46' E 010°09'612.9
2018-May-20 14:00N 57°46' E 009°57'1712.6
2018-May-20 12:40N 57°44' E 009°25'312.9
2018-May-20 12:25N 57°44' E 009°19'1913.1
2018-May-20 10:58N 57°43' E 008°43'613.0
2018-May-20 10:30N 57°42' E 008°32'612.5
2018-May-20 10:00N 57°42' E 008°21'612.3
2018-May-20 09:30N 57°42' E 008°09'612.2
2018-May-20 09:00N 57°42' E 007°58'612.2
2018-May-20 08:30N 57°42' E 007°46'612.0
2018-May-20 08:00N 57°43' E 007°35'612.6
2018-May-20 07:30N 57°43' E 007°23'612.6
2018-May-20 07:00N 57°43' E 007°12'612.4
2018-May-20 06:30N 57°44' E 006°60'612.4
2018-May-20 05:59N 57°44' E 006°48'712.5
2018-May-20 05:27N 57°45' E 006°35'612.0
2018-May-20 04:58N 57°45' E 006°25'612.1
2018-May-20 04:29N 57°48' E 006°14'612.0
2018-May-20 04:00N 57°50' E 006°05'612.4
2018-May-20 03:30N 57°53' E 005°54'712.6
2018-May-20 02:59N 57°56' E 005°43'612.7
2018-May-20 02:30N 57°58' E 005°32'612.9
2018-May-20 02:00N 58°01' E 005°22'713.2
2018-May-20 01:30N 58°04' E 005°11'612.8
2018-May-20 01:00N 58°07' E 004°59'612.6
2018-May-20 00:30N 58°09' E 004°49'611.9
2018-May-20 00:00N 58°12' E 004°39'611.7
2018-May-19 23:30N 58°15' E 004°29'712.1
2018-May-19 22:58N 58°17' E 004°17'712.6
2018-May-19 22:26N 58°20' E 004°06'512.5
2018-May-19 22:00N 58°23' E 003°56'812.7
2018-May-19 21:24N 58°26' E 003°43'2212.6
2018-May-19 19:40N 58°35' E 003°05'412.6
2018-May-19 19:23N 58°37' E 002°59'512.6
2018-May-19 19:00N 58°39' E 002°51'712.6
2018-May-19 18:27N 58°42' E 002°39'912.7
2018-May-19 17:45N 58°46' E 002°23'  

Dump ship's entire track history